Date,TemperatureHighF,TemperatureAvgF,TemperatureLowF,DewpointHighF,DewpointAvgF,DewpointLowF,HumidityHigh,HumidityAvg,HumidityLow,PressureMaxIn,PressureMinIn,WindSpeedMaxMPH,WindSpeedAvgMPH,GustSpeedMaxMPH,PrecipitationSumIn
2013-4-1,49,42,36,-100,-100,-100,0,0,100,0.00,40.00,0,-999,0,0.00
2013-4-2,45,38,32,-100,-100,-100,0,0,100,0.00,40.00,0,-999,0,0.00
2013-4-3,53,43,32,-100,-100,-100,0,0,100,0.00,40.00,0,-999,0,0.00
2013-4-4,61,50,40,-100,-100,-100,0,0,100,0.00,40.00,0,-999,0,0.00
2013-4-5,67,56,40,-100,-100,-100,0,0,100,0.00,40.00,0,-999,0,0.00
2013-4-6,69,61,51,-100,-100,-100,0,0,100,0.00,40.00,0,-999,0,0.00
2013-4-7,79,66,50,-100,-100,-100,0,0,100,0.00,40.00,0,-999,0,0.00
2013-4-8,74,67,59,-100,-100,-100,0,0,100,0.00,40.00,0,-999,0,0.00
2013-4-9,77,71,65,-100,-100,-100,0,0,100,0.00,40.00,0,-999,0,0.00
2013-4-10,78,70,63,-100,-100,-100,0,0,100,0.00,40.00,0,-999,0,0.00
2013-4-11,59,50,42,-100,-100,-100,0,0,100,0.00,40.00,0,-999,0,0.00
2013-4-12,47,44,40,-100,-100,-100,0,0,100,0.00,40.00,0,-999,0,0.00
2013-4-13,59,51,37,-100,-100,-100,0,0,100,0.00,40.00,0,-999,0,0.00
2013-4-14,77,64,50,-100,-100,-100,0,0,100,0.00,40.00,0,-999,0,0.00
2013-4-15,71,63,55,-100,-100,-100,0,0,100,0.00,40.00,0,-999,0,0.00
2013-4-16,51,50,48,-100,-100,-100,0,0,100,0.00,40.00,0,-999,0,0.00
2013-4-17,82,68,49,-100,-100,-100,0,0,100,0.00,40.00,0,-999,0,0.00
2013-4-18,75,61,46,-100,-100,-100,0,0,100,0.00,40.00,0,-999,0,0.00
2013-4-19,48,43,39,-100,-100,-100,0,0,100,0.00,40.00,0,-999,0,0.00
2013-4-20,53,43,35,-100,-100,-100,0,0,100,0.00,40.00,0,-999,0,0.00
2013-4-21,62,48,41,-100,-100,-100,0,0,100,0.00,40.00,0,-999,0,0.00
2013-4-22,71,59,46,-100,-100,-100,0,0,100,0.00,40.00,0,-999,0,0.00
2013-4-23,62,57,44,-100,-100,-100,0,0,100,0.00,40.00,0,-999,0,0.00
2013-4-24,52,45,39,-100,-100,-100,0,0,100,0.00,40.00,0,-999,0,0.00
2013-4-25,63,52,41,-100,-100,-100,0,0,100,0.00,40.00,0,-999,0,0.00
2013-4-26,63,56,49,-100,-100,-100,0,0,100,0.00,40.00,0,-999,0,0.00
2013-4-27,56,54,52,-100,-100,-100,0,0,100,0.00,40.00,0,-999,0,0.00
2013-4-28,60,56,53,-100,-100,-100,0,0,100,0.00,40.00,0,-999,0,0.00
2013-4-29,75,61,48,-100,-100,-100,0,0,100,0.00,40.00,0,-999,0,0.00
2013-4-30,84,78,61,-100,-100,-100,0,0,100,0.00,40.00,0,-999,0,0.00